Time;durP1;ratioP1;P1;durP2;ratioP2;P2;SDS_P1;SDS_P2;PMS_P1;PMS_P2;Temp;Humidity;BMP_temperature;BMP_pressure;BME280_temperature;BME280_humidity;BME280_pressure;Samples;Min_cycle;Max_cycle;Signal;HPM_P1;HPM_P2
2024/02/22 00:01:37;;;;;;;1.20;0.50;;;10.40;99.90;;;;;;4933186;29;20212;-74
2024/02/22 00:04:02;;;;;;;1.70;0.60;;;10.40;99.90;;;;;;4930891;29;20185;-74
2024/02/22 00:06:28;;;;;;;1.30;0.50;;;10.40;99.90;;;;;;4933626;29;20212;-74
2024/02/22 00:08:54;;;;;;;1.30;0.60;;;10.40;99.90;;;;;;4940227;29;20196;-74
2024/02/22 00:11:19;;;;;;;2.13;0.50;;;10.40;99.90;;;;;;4933260;29;20605;-75
2024/02/22 00:13:46;;;;;;;1.60;0.90;;;10.40;99.90;;;;;;4932290;29;20217;-74
2024/02/22 00:16:14;;;;;;;1.45;0.60;;;10.50;99.90;;;;;;4933500;29;20606;-74
2024/02/22 00:18:41;;;;;;;1.63;0.50;;;10.50;99.90;;;;;;4931796;29;20177;-74
2024/02/22 00:21:08;;;;;;;2.10;0.50;;;10.50;99.90;;;;;;4932998;29;20744;-74
2024/02/22 00:23:34;;;;;;;1.20;0.50;;;10.50;99.90;;;;;;4932223;29;20187;-75
2024/02/22 00:26:00;;;;;;;1.25;0.52;;;10.50;99.90;;;;;;4933392;29;20201;-75
2024/02/22 00:28:27;;;;;;;1.20;0.50;;;10.50;99.90;;;;;;4931603;29;20203;-75
2024/02/22 00:30:52;;;;;;;1.23;0.60;;;10.60;99.90;;;;;;4931913;29;20209;-75
2024/02/22 00:33:18;;;;;;;1.10;0.40;;;10.60;99.90;;;;;;4932120;29;20177;-76
2024/02/22 00:35:44;;;;;;;1.10;0.40;;;10.60;99.90;;;;;;4933091;29;20182;-75
2024/02/22 00:38:10;;;;;;;1.10;0.50;;;10.60;99.90;;;;;;4947953;29;20592;-74
2024/02/22 00:40:36;;;;;;;1.23;0.40;;;10.70;99.90;;;;;;4932211;29;20624;-74
2024/02/22 00:43:02;;;;;;;1.53;0.40;;;10.70;99.90;;;;;;4929819;29;20219;-75
2024/02/22 00:45:29;;;;;;;1.20;0.50;;;10.70;99.90;;;;;;4954507;28;20323;-75
2024/02/22 00:47:58;;;;;;;1.10;0.40;;;10.70;99.90;;;;;;4931860;29;20661;-75
2024/02/22 00:50:24;;;;;;;1.20;0.45;;;10.70;99.90;;;;;;4918699;29;20223;-75
2024/02/22 00:52:50;;;;;;;2.10;0.60;;;10.70;99.90;;;;;;4951894;28;20628;-74
2024/02/22 00:55:16;;;;;;;1.58;0.47;;;10.70;99.90;;;;;;4942405;29;20600;-74
2024/02/22 00:57:42;;;;;;;1.05;0.35;;;10.70;99.90;;;;;;4944816;29;20603;-75
2024/02/22 01:00:11;;;;;;;1.10;0.40;;;10.70;99.90;;;;;;4932357;29;20189;-74
2024/02/22 01:02:39;;;;;;;2.20;0.47;;;10.80;99.90;;;;;;4932654;29;20217;-76
2024/02/22 01:05:06;;;;;;;1.10;0.40;;;10.80;99.90;;;;;;4935402;29;20236;-76
2024/02/22 01:07:32;;;;;;;1.10;0.40;;;10.80;99.90;;;;;;4919516;29;20213;-76
2024/02/22 01:09:58;;;;;;;2.17;0.43;;;10.80;99.90;;;;;;4934947;29;20554;-76
2024/02/22 01:12:24;;;;;;;1.10;0.40;;;10.80;99.90;;;;;;4944067;29;20211;-76
2024/02/22 01:14:50;;;;;;;2.13;0.50;;;10.80;99.90;;;;;;4936767;29;20181;-75
2024/02/22 01:17:18;;;;;;;2.42;0.40;;;10.90;99.90;;;;;;4935172;29;20773;-76
2024/02/22 01:19:47;;;;;;;1.23;0.50;;;10.90;99.90;;;;;;4935565;29;20181;-75
2024/02/22 01:22:13;;;;;;;1.10;0.40;;;10.90;99.90;;;;;;4934941;29;20249;-76
2024/02/22 01:24:40;;;;;;;1.40;0.47;;;10.90;99.90;;;;;;4936595;29;20200;-76
2024/02/22 01:27:07;;;;;;;1.20;0.40;;;10.90;99.90;;;;;;4936424;29;20624;-76
2024/02/22 01:29:33;;;;;;;1.30;0.50;;;10.90;99.90;;;;;;4935824;29;20184;-76
2024/02/22 01:31:59;;;;;;;1.77;0.60;;;10.90;99.90;;;;;;4918839;29;20697;-76
2024/02/22 01:34:25;;;;;;;1.20;0.60;;;10.90;99.90;;;;;;4936227;29;20173;-76
2024/02/22 01:36:51;;;;;;;1.30;0.50;;;10.90;99.90;;;;;;4919301;29;21226;-76
2024/02/22 01:39:17;;;;;;;1.30;0.57;;;10.90;99.90;;;;;;4935592;29;20655;-76
2024/02/22 01:41:43;;;;;;;1.57;0.50;;;10.90;99.90;;;;;;4934617;29;20201;-76
2024/02/22 01:44:09;;;;;;;1.33;0.50;;;11.00;99.90;;;;;;4950728;29;20192;-76
2024/02/22 01:46:35;;;;;;;1.15;0.50;;;11.00;99.90;;;;;;4934713;29;20201;-76
2024/02/22 01:49:01;;;;;;;1.10;0.40;;;11.00;99.90;;;;;;4933769;29;20192;-76
2024/02/22 01:51:28;;;;;;;1.23;0.45;;;11.00;99.90;;;;;;4918693;29;20197;-76
2024/02/22 01:53:55;;;;;;;1.10;0.50;;;11.00;99.90;;;;;;4934555;29;20803;-76
2024/02/22 01:56:22;;;;;;;1.10;0.40;;;11.10;99.90;;;;;;4935892;29;20173;-75
2024/02/22 01:58:49;;;;;;;1.10;0.40;;;11.00;99.90;;;;;;4918240;29;20272;-76
2024/02/22 02:01:23;;;;;;;1.10;0.45;;;11.00;99.90;;;;;;4935615;29;20221;-76
2024/02/22 02:03:50;;;;;;;1.20;0.50;;;11.10;99.90;;;;;;4918274;29;20181;-75
2024/02/22 02:06:17;;;;;;;1.35;0.45;;;11.10;99.90;;;;;;4935611;29;20232;-76
2024/02/22 02:08:43;;;;;;;1.10;0.45;;;11.10;99.90;;;;;;4935003;29;20204;-76
2024/02/22 02:11:09;;;;;;;1.87;0.40;;;11.10;99.90;;;;;;4935540;29;20197;-76
2024/02/22 02:13:35;;;;;;;1.10;0.40;;;11.10;99.90;;;;;;4934150;29;20596;-76
2024/02/22 02:16:00;;;;;;;1.00;0.40;;;11.10;99.90;;;;;;4934660;29;20601;-76
2024/02/22 02:18:27;;;;;;;1.00;0.40;;;11.10;99.90;;;;;;4943541;29;20666;-76
2024/02/22 02:21:05;;;;;;;1.63;0.40;;;11.10;99.90;;;;;;4934937;29;20783;-76
2024/02/22 02:24:08;;;;;;;2.38;0.40;;;11.10;99.90;;;;;;4928109;29;20192;-76
2024/02/22 02:26:34;;;;;;;1.10;0.40;;;11.10;99.90;;;;;;4922155;29;20275;-76
2024/02/22 02:28:59;;;;;;;1.13;0.40;;;11.10;99.90;;;;;;4938370;29;20209;-76
2024/02/22 02:31:25;;;;;;;1.10;0.40;;;11.10;99.90;;;;;;4941646;29;20200;-76
2024/02/22 02:33:51;;;;;;;1.10;0.40;;;11.10;99.90;;;;;;4933826;29;20215;-76
2024/02/22 02:36:16;;;;;;;1.10;0.40;;;11.10;99.90;;;;;;4918195;29;20188;-74
2024/02/22 02:38:42;;;;;;;1.03;0.40;;;11.10;99.90;;;;;;4933379;29;20580;-75
2024/02/22 02:41:07;;;;;;;1.20;0.47;;;11.10;99.90;;;;;;4933755;29;20197;-75
2024/02/22 02:43:33;;;;;;;1.10;0.40;;;11.10;99.90;;;;;;4935032;29;20542;-76
2024/02/22 02:46:02;;;;;;;1.10;0.40;;;11.10;99.90;;;;;;4933692;29;20185;-75
2024/02/22 02:48:27;;;;;;;1.05;0.40;;;11.10;99.90;;;;;;4932865;29;20201;-76
2024/02/22 02:50:54;;;;;;;1.83;0.40;;;11.10;99.90;;;;;;4933626;29;20208;-75
2024/02/22 02:53:21;;;;;;;1.00;0.38;;;11.10;99.90;;;;;;4934683;29;20684;-75
2024/02/22 02:55:47;;;;;;;1.00;0.40;;;11.10;99.90;;;;;;4933739;29;20592;-76
2024/02/22 02:58:13;;;;;;;1.67;0.40;;;11.10;99.90;;;;;;4934851;29;20181;-76
2024/02/22 03:00:39;;;;;;;1.77;0.40;;;11.10;99.90;;;;;;4932566;29;20697;-75
2024/02/22 03:03:04;;;;;;;1.23;0.40;;;11.20;99.90;;;;;;4934358;29;20643;-75
2024/02/22 03:05:30;;;;;;;1.00;0.40;;;11.20;99.90;;;;;;4933338;29;20489;-75
2024/02/22 03:07:56;;;;;;;1.20;0.40;;;11.20;99.90;;;;;;4932944;29;20272;-75
2024/02/22 03:10:22;;;;;;;1.03;0.40;;;11.10;99.90;;;;;;4934009;29;20189;-75
2024/02/22 03:12:48;;;;;;;1.40;0.50;;;11.20;99.90;;;;;;4917083;29;20173;-75
2024/02/22 03:15:14;;;;;;;1.20;0.43;;;11.20;99.90;;;;;;4934334;29;20621;-75
2024/02/22 03:17:40;;;;;;;1.17;0.40;;;11.20;99.90;;;;;;4933361;29;20181;-76
2024/02/22 03:20:10;;;;;;;1.87;0.40;;;11.20;99.90;;;;;;4916387;29;20201;-75
2024/02/22 03:22:39;;;;;;;1.17;0.40;;;11.10;99.90;;;;;;4947739;28;20239;-75
2024/02/22 03:25:07;;;;;;;1.00;0.40;;;11.20;99.90;;;;;;4932841;29;20189;-75
2024/02/22 03:27:33;;;;;;;1.17;0.40;;;11.20;99.90;;;;;;4932639;29;20292;-74
2024/02/22 03:29:59;;;;;;;1.60;0.60;;;11.20;99.90;;;;;;4947542;29;20255;-75
2024/02/22 03:32:25;;;;;;;4.30;0.40;;;11.20;99.90;;;;;;4942504;29;20264;-75
2024/02/22 03:34:51;;;;;;;1.20;0.40;;;11.30;99.90;;;;;;4932860;29;20181;-75
2024/02/22 03:37:17;;;;;;;1.10;0.40;;;11.30;99.90;;;;;;4943707;29;20588;-75
2024/02/22 03:39:49;;;;;;;1.17;0.40;;;11.30;99.90;;;;;;4930157;29;20244;-75
2024/02/22 03:42:16;;;;;;;1.10;0.40;;;11.40;99.90;;;;;;4933805;29;20205;-74
2024/02/22 03:44:41;;;;;;;1.10;0.40;;;11.40;99.90;;;;;;4933832;29;20170;-76
2024/02/22 03:47:07;;;;;;;1.00;0.40;;;11.40;99.90;;;;;;4933769;29;20576;-75
2024/02/22 03:49:33;;;;;;;1.20;0.40;;;11.40;99.90;;;;;;4932094;29;20212;-75
2024/02/22 03:51:59;;;;;;;1.10;0.40;;;11.40;99.90;;;;;;4951694;29;20628;-75
2024/02/22 03:54:25;;;;;;;1.20;0.50;;;11.40;99.90;;;;;;4942121;29;20229;-76
2024/02/22 03:56:51;;;;;;;1.00;0.40;;;11.40;99.90;;;;;;4916722;29;20272;-75
2024/02/22 03:59:17;;;;;;;2.38;0.40;;;11.40;99.90;;;;;;4932996;29;20185;-76
2024/02/22 04:01:43;;;;;;;1.30;0.40;;;11.40;99.90;;;;;;4933507;29;20236;-76
2024/02/22 04:04:09;;;;;;;1.27;0.50;;;11.40;99.90;;;;;;4916343;29;20262;-76
2024/02/22 04:06:37;;;;;;;1.13;0.40;;;11.40;99.90;;;;;;4932719;29;20189;-76
2024/02/22 04:09:03;;;;;;;1.10;0.40;;;11.50;99.90;;;;;;4931965;29;20282;-76
2024/02/22 04:11:29;;;;;;;1.20;0.50;;;11.50;99.90;;;;;;4916655;29;20185;-76
2024/02/22 04:13:55;;;;;;;1.00;0.40;;;11.50;99.90;;;;;;4932518;29;20904;-76
2024/02/22 04:16:21;;;;;;;1.33;0.40;;;11.50;99.90;;;;;;4932432;29;20180;-76
2024/02/22 04:18:46;;;;;;;2.37;0.50;;;11.50;99.90;;;;;;4933231;29;20699;-76
2024/02/22 04:21:12;;;;;;;1.20;0.50;;;11.50;99.90;;;;;;4932838;29;20201;-76
2024/02/22 04:23:38;;;;;;;1.10;0.50;;;11.50;99.90;;;;;;4933467;29;20271;-76
2024/02/22 04:26:03;;;;;;;1.10;0.40;;;11.50;99.90;;;;;;4932880;29;20225;-76
2024/02/22 04:28:29;;;;;;;1.80;0.40;;;11.50;99.90;;;;;;4931260;29;20216;-75
2024/02/22 04:30:55;;;;;;;1.07;0.40;;;11.50;99.90;;;;;;4933434;29;20211;-75
2024/02/22 04:33:20;;;;;;;1.07;0.43;;;11.50;99.90;;;;;;4933263;29;20252;-75
2024/02/22 04:35:47;;;;;;;1.03;0.40;;;11.50;99.90;;;;;;4931897;29;20177;-75
2024/02/22 04:38:13;;;;;;;1.30;0.60;;;11.50;99.90;;;;;;4942813;29;20198;-75
2024/02/22 04:40:39;;;;;;;1.30;0.50;;;11.50;99.90;;;;;;4950543;28;20184;-75
2024/02/22 04:43:06;;;;;;;1.45;0.40;;;11.50;99.90;;;;;;4935903;29;20191;-75
2024/02/22 04:45:35;;;;;;;1.00;0.40;;;11.50;99.90;;;;;;4937045;29;20264;-75
2024/02/22 04:48:03;;;;;;;1.10;0.50;;;11.50;99.90;;;;;;4935938;29;20208;-75
2024/02/22 04:50:29;;;;;;;1.20;0.50;;;11.50;99.90;;;;;;4936328;29;20231;-75
2024/02/22 04:52:55;;;;;;;1.52;0.50;;;11.50;99.90;;;;;;4920186;29;20181;-76
2024/02/22 04:55:21;;;;;;;1.30;0.50;;;11.50;99.90;;;;;;4936700;29;20863;-75
2024/02/22 04:57:50;;;;;;;1.20;0.50;;;11.40;99.90;;;;;;4935476;29;20264;-76
2024/02/22 05:00:16;;;;;;;1.10;0.50;;;11.40;99.90;;;;;;4936166;29;20953;-76
2024/02/22 05:02:43;;;;;;;1.77;0.55;;;11.40;99.90;;;;;;4944570;29;20232;-77
2024/02/22 05:05:09;;;;;;;1.10;0.40;;;11.40;99.90;;;;;;4934720;29;20181;-76
2024/02/22 05:07:36;;;;;;;2.13;0.50;;;11.30;99.90;;;;;;4935327;29;20706;-76
2024/02/22 05:10:03;;;;;;;1.10;0.55;;;11.30;99.90;;;;;;4933830;29;20666;-76
2024/02/22 05:12:29;;;;;;;1.20;0.50;;;11.30;99.90;;;;;;4935677;29;20219;-76
2024/02/22 05:14:55;;;;;;;3.95;1.48;;;11.30;99.90;;;;;;4919000;29;20937;-76
2024/02/22 05:17:21;;;;;;;1.23;0.50;;;11.40;99.90;;;;;;4935240;29;20216;-76
2024/02/22 05:19:48;;;;;;;1.10;0.50;;;11.40;99.90;;;;;;4950629;29;20676;-76
2024/02/22 05:22:13;;;;;;;1.20;0.40;;;11.40;99.90;;;;;;4943232;29;21061;-75
2024/02/22 05:24:40;;;;;;;1.60;0.50;;;11.40;99.90;;;;;;4951204;29;20259;-77
2024/02/22 05:27:06;;;;;;;1.30;0.73;;;11.40;99.90;;;;;;4934455;29;20673;-76
2024/02/22 05:29:32;;;;;;;2.00;0.55;;;11.40;99.90;;;;;;4950236;29;20189;-75
2024/02/22 05:31:58;;;;;;;3.80;0.50;;;11.40;99.90;;;;;;4927145;29;20193;-75
2024/02/22 05:34:27;;;;;;;1.20;0.40;;;11.50;99.90;;;;;;4936125;29;20527;-76
2024/02/22 05:36:56;;;;;;;1.10;0.40;;;11.50;99.90;;;;;;4950525;29;20604;-75
2024/02/22 05:39:21;;;;;;;1.10;0.45;;;11.50;99.90;;;;;;4934236;29;20185;-75
2024/02/22 05:42:19;;;;;;;1.10;0.40;;;11.50;99.90;;;;;;4934609;29;20200;-77
2024/02/22 05:44:45;;;;;;;1.25;0.50;;;11.50;99.90;;;;;;4924792;29;20245;-75
2024/02/22 05:47:13;;;;;;;1.10;0.40;;;11.50;99.90;;;;;;4932717;29;20287;-76
2024/02/22 05:49:40;;;;;;;1.20;0.50;;;11.50;99.90;;;;;;4933576;29;20173;-76
2024/02/22 05:52:06;;;;;;;1.35;0.50;;;11.50;99.90;;;;;;4934590;29;20197;-76
2024/02/22 05:54:32;;;;;;;1.93;0.50;;;11.50;99.90;;;;;;4918091;29;21015;-78
2024/02/22 05:56:58;;;;;;;2.77;0.43;;;11.50;99.90;;;;;;4930751;29;20189;-77
2024/02/22 05:59:24;;;;;;;1.70;0.50;;;11.60;99.90;;;;;;4935982;29;20196;-77
2024/02/22 06:01:50;;;;;;;1.35;0.40;;;11.50;99.90;;;;;;4938301;29;20213;-77
2024/02/22 06:04:16;;;;;;;1.00;0.40;;;11.60;99.90;;;;;;4944648;29;20185;-76
2024/02/22 06:06:41;;;;;;;1.50;0.50;;;11.60;99.90;;;;;;4935662;29;20705;-76
2024/02/22 06:09:09;;;;;;;1.20;0.50;;;11.60;99.90;;;;;;4935067;29;20589;-76
2024/02/22 06:11:35;;;;;;;2.05;0.50;;;11.60;99.90;;;;;;4937307;29;20203;-76
2024/02/22 06:14:01;;;;;;;2.00;0.60;;;11.60;99.90;;;;;;4935694;29;20172;-76
2024/02/22 06:16:29;;;;;;;1.67;0.50;;;11.60;99.90;;;;;;4934928;29;20670;-76
2024/02/22 06:18:55;;;;;;;1.15;0.47;;;11.60;99.90;;;;;;4934839;29;20607;-76
2024/02/22 06:21:20;;;;;;;2.33;0.60;;;11.60;99.90;;;;;;4939360;29;20197;-76
2024/02/22 06:23:46;;;;;;;1.83;0.60;;;11.60;99.90;;;;;;4933954;29;20221;-76
2024/02/22 06:26:12;;;;;;;1.40;0.80;;;11.60;99.90;;;;;;4933928;29;20209;-76
2024/02/22 06:28:38;;;;;;;1.30;0.60;;;11.60;99.90;;;;;;4933369;29;20567;-76
2024/02/22 06:31:03;;;;;;;1.50;0.50;;;11.60;99.90;;;;;;4935300;29;20563;-76
2024/02/22 06:33:32;;;;;;;1.20;0.50;;;11.60;99.90;;;;;;4948445;29;20648;-75
2024/02/22 06:35:59;;;;;;;1.35;0.55;;;11.70;99.90;;;;;;4934999;29;20659;-74
2024/02/22 06:38:25;;;;;;;1.20;0.60;;;11.60;99.90;;;;;;4932946;29;20189;-76
2024/02/22 06:40:50;;;;;;;1.97;0.60;;;11.70;99.90;;;;;;4934998;29;20294;-76
2024/02/22 06:43:17;;;;;;;1.17;0.50;;;11.70;99.90;;;;;;4942618;29;20634;-76
2024/02/22 06:45:43;;;;;;;1.40;0.60;;;11.70;99.90;;;;;;4935010;29;20587;-76
2024/02/22 06:48:09;;;;;;;1.40;0.70;;;11.80;99.90;;;;;;4934494;29;20563;-77
2024/02/22 06:50:35;;;;;;;1.20;0.50;;;11.80;99.90;;;;;;4932786;29;20263;-77
2024/02/22 06:53:01;;;;;;;1.60;0.50;;;11.80;99.90;;;;;;4933456;29;20208;-76
2024/02/22 06:55:27;;;;;;;1.20;0.50;;;11.90;99.90;;;;;;4934608;29;20684;-76
2024/02/22 06:57:53;;;;;;;1.10;0.52;;;11.90;99.90;;;;;;4934451;29;20184;-76
2024/02/22 07:00:19;;;;;;;1.10;0.40;;;11.90;99.90;;;;;;4932209;29;20623;-76
2024/02/22 07:02:45;;;;;;;1.67;0.50;;;11.90;99.90;;;;;;4932920;29;20244;-76
2024/02/22 07:05:12;;;;;;;1.30;0.57;;;11.90;99.90;;;;;;4933138;29;20177;-76
2024/02/22 07:07:39;;;;;;;3.08;0.70;;;11.90;99.90;;;;;;4940671;29;20300;-76
2024/02/22 07:10:06;;;;;;;2.33;1.00;;;11.90;99.90;;;;;;4933959;29;20181;-76
2024/02/22 07:12:32;;;;;;;2.22;0.75;;;11.90;99.90;;;;;;4933061;29;20766;-77
2024/02/22 07:14:59;;;;;;;1.70;0.80;;;11.90;99.90;;;;;;4933104;29;20177;-76
2024/02/22 07:17:25;;;;;;;2.47;0.80;;;11.90;99.90;;;;;;4934032;29;20958;-76
2024/02/22 07:19:51;;;;;;;1.67;0.60;;;11.90;99.90;;;;;;4927669;29;20177;-76
2024/02/22 07:22:17;;;;;;;1.60;0.70;;;12.00;99.90;;;;;;4949113;29;20237;-76
2024/02/22 07:24:43;;;;;;;1.40;0.50;;;12.00;99.90;;;;;;4933063;29;20189;-76
2024/02/22 07:27:11;;;;;;;1.50;0.90;;;12.00;99.90;;;;;;4916415;29;20757;-76
2024/02/22 07:29:40;;;;;;;1.50;0.50;;;12.00;99.90;;;;;;4931965;29;20672;-76
2024/02/22 07:32:08;;;;;;;2.80;0.60;;;12.10;99.90;;;;;;4916782;29;20205;-75
2024/02/22 07:34:34;;;;;;;1.20;0.60;;;12.10;99.90;;;;;;4936121;29;20566;-76
2024/02/22 07:37:00;;;;;;;1.30;0.60;;;12.10;99.90;;;;;;4951911;29;20191;-76
2024/02/22 07:39:27;;;;;;;2.60;0.60;;;12.10;99.90;;;;;;4936379;29;20177;-76
2024/02/22 07:41:53;;;;;;;3.40;0.80;;;12.20;99.90;;;;;;4945295;29;20197;-76
2024/02/22 07:44:18;;;;;;;1.50;0.60;;;12.20;99.90;;;;;;4938458;29;20212;-76
2024/02/22 07:46:44;;;;;;;1.30;0.50;;;12.20;99.90;;;;;;4933392;29;20310;-75
2024/02/22 07:49:11;;;;;;;2.78;0.60;;;12.20;99.90;;;;;;4933357;29;20216;-75
2024/02/22 07:51:37;;;;;;;1.20;0.40;;;12.20;99.90;;;;;;4925381;29;20237;-75
2024/02/22 07:54:02;;;;;;;1.40;0.40;;;12.30;99.90;;;;;;4943205;29;20185;-76
2024/02/22 07:56:29;;;;;;;1.20;0.50;;;12.30;99.90;;;;;;4932342;29;20177;-75
2024/02/22 07:58:57;;;;;;;1.23;0.50;;;12.40;99.90;;;;;;4947746;29;20549;-76
2024/02/22 08:01:23;;;;;;;1.00;0.40;;;12.40;99.90;;;;;;4932267;29;20295;-76
2024/02/22 08:03:50;;;;;;;1.20;0.50;;;12.40;99.90;;;;;;4933408;29;20228;-76
2024/02/22 08:06:17;;;;;;;1.10;0.50;;;12.40;99.90;;;;;;4916708;29;20180;-76
2024/02/22 08:08:43;;;;;;;1.20;0.50;;;12.50;99.90;;;;;;4932872;29;20209;-76
2024/02/22 08:11:10;;;;;;;1.23;0.40;;;12.50;99.90;;;;;;4948532;29;20817;-76
2024/02/22 08:13:36;;;;;;;1.93;0.43;;;12.50;99.90;;;;;;4935670;29;20589;-76
2024/02/22 08:16:06;;;;;;;1.20;0.43;;;12.50;99.90;;;;;;4926605;29;20599;-76
2024/02/22 08:18:33;;;;;;;1.30;0.60;;;12.60;99.90;;;;;;4932396;29;20189;-74
2024/02/22 08:20:59;;;;;;;1.23;0.57;;;12.60;99.90;;;;;;4944917;29;21214;-75
2024/02/22 08:23:27;;;;;;;1.67;0.50;;;12.70;99.90;;;;;;4949843;29;20592;-75
2024/02/22 08:25:53;;;;;;;3.10;0.98;;;12.70;99.90;;;;;;4940704;28;21258;-76
2024/02/22 08:28:20;;;;;;;1.30;0.60;;;12.70;99.90;;;;;;4915792;29;20246;-74
2024/02/22 08:30:45;;;;;;;2.07;0.60;;;12.70;99.90;;;;;;4948461;29;21006;-75
2024/02/22 08:33:12;;;;;;;1.10;0.50;;;12.70;99.90;;;;;;4933499;29;20740;-74
2024/02/22 08:35:41;;;;;;;1.87;0.50;;;12.70;99.90;;;;;;4932077;29;20592;-74
2024/02/22 08:38:07;;;;;;;1.40;0.57;;;12.70;99.90;;;;;;4932120;29;21130;-74
2024/02/22 08:40:37;;;;;;;1.13;0.40;;;12.60;99.90;;;;;;4924659;29;21188;-75
2024/02/22 08:43:03;;;;;;;1.10;0.50;;;12.60;99.90;;;;;;4954035;28;20604;-75
2024/02/22 08:45:30;;;;;;;3.80;0.70;;;12.60;99.90;;;;;;4932052;29;21387;-75
2024/02/22 08:47:56;;;;;;;1.60;0.70;;;12.60;99.90;;;;;;4933114;29;20610;-75
2024/02/22 08:50:22;;;;;;;1.50;0.70;;;12.70;99.90;;;;;;4916165;29;20954;-75
2024/02/22 08:52:48;;;;;;;1.83;0.53;;;12.70;99.90;;;;;;4933078;29;21124;-76
2024/02/22 08:55:14;;;;;;;1.40;0.70;;;12.80;99.90;;;;;;4931935;29;21042;-76
2024/02/22 08:57:41;;;;;;;1.20;0.57;;;12.90;99.90;;;;;;4941878;29;20958;-76
2024/02/22 09:00:11;;;;;;;1.50;0.60;;;12.90;99.90;;;;;;4937852;29;20677;-76
2024/02/22 09:02:37;;;;;;;1.77;1.00;;;12.90;99.90;;;;;;4932851;29;20732;-75
2024/02/22 09:05:05;;;;;;;1.40;0.60;;;12.90;99.90;;;;;;4915774;29;20601;-76
2024/02/22 09:07:31;;;;;;;1.90;0.60;;;12.90;99.90;;;;;;4931929;29;20197;-76
2024/02/22 09:09:57;;;;;;;1.87;0.70;;;12.90;99.90;;;;;;4931000;29;20604;-75
2024/02/22 09:12:23;;;;;;;1.30;0.50;;;13.00;99.90;;;;;;4933047;29;20612;-75
2024/02/22 09:14:48;;;;;;;1.80;0.60;;;13.00;99.90;;;;;;4933208;29;20577;-76
2024/02/22 09:17:14;;;;;;;2.30;0.70;;;13.10;99.90;;;;;;4932964;29;20188;-76
2024/02/22 09:19:42;;;;;;;1.83;1.27;;;13.20;99.90;;;;;;4932100;29;20185;-76
2024/02/22 09:22:08;;;;;;;1.30;0.60;;;13.30;99.90;;;;;;4931589;29;20615;-76
2024/02/22 09:24:37;;;;;;;1.27;0.50;;;13.30;99.90;;;;;;4934422;29;20679;-76
2024/02/22 09:27:03;;;;;;;1.70;0.73;;;13.50;99.90;;;;;;4935316;29;20736;-76
2024/02/22 09:29:29;;;;;;;2.27;0.50;;;13.50;99.90;;;;;;4935584;29;20660;-76
2024/02/22 09:31:55;;;;;;;2.60;0.70;;;13.60;99.90;;;;;;4934975;29;20605;-74
2024/02/22 09:34:24;;;;;;;1.30;0.60;;;13.60;99.90;;;;;;4936659;29;20631;-75
2024/02/22 09:36:50;;;;;;;2.60;1.33;;;13.60;99.90;;;;;;4935009;29;20593;-74
2024/02/22 09:39:16;;;;;;;1.60;0.70;;;13.70;99.90;;;;;;4934167;29;20612;-74
2024/02/22 09:41:43;;;;;;;1.80;0.60;;;13.80;99.90;;;;;;4936189;29;20638;-74
2024/02/22 09:44:10;;;;;;;1.20;0.57;;;13.90;99.90;;;;;;4934852;29;20207;-75
2024/02/22 09:46:38;;;;;;;1.83;0.70;;;14.00;99.90;;;;;;4934373;29;20602;-75
2024/02/22 09:49:03;;;;;;;1.80;1.00;;;14.00;99.90;;;;;;4934048;29;20600;-75
2024/02/22 09:51:36;;;;;;;3.63;0.80;;;14.10;99.90;;;;;;4934328;29;20609;-75
2024/02/22 09:54:02;;;;;;;1.60;0.70;;;14.20;99.90;;;;;;4936046;29;20225;-75
2024/02/22 09:56:28;;;;;;;4.50;0.77;;;14.20;99.90;;;;;;4935936;29;20603;-74
2024/02/22 09:58:56;;;;;;;2.07;0.80;;;14.30;99.90;;;;;;4931979;29;20608;-75
2024/02/22 10:01:22;;;;;;;2.13;0.90;;;14.20;99.90;;;;;;4934517;29;20639;-74
2024/02/22 10:03:48;;;;;;;2.00;1.07;;;14.30;99.90;;;;;;4934846;29;20607;-75
2024/02/22 10:06:22;;;;;;;1.50;0.60;;;14.40;99.90;;;;;;4937437;29;21205;-74
2024/02/22 10:08:48;;;;;;;1.97;0.80;;;14.50;99.90;;;;;;4934687;29;20213;-75
2024/02/22 10:11:17;;;;;;;1.40;0.70;;;14.60;99.90;;;;;;4935236;29;20648;-74
2024/02/22 10:13:43;;;;;;;3.73;0.90;;;14.70;99.90;;;;;;4935689;29;20688;-79
2024/02/22 10:16:14;;;;;;;1.77;0.70;;;14.70;99.90;;;;;;4934568;29;20577;-77
2024/02/22 10:18:40;;;;;;;1.40;0.60;;;14.80;99.90;;;;;;4941940;29;20601;-78
2024/02/22 10:21:19;;;;;;;2.90;0.70;;;14.90;99.90;;;;;;4935459;29;20604;-79
2024/02/22 10:23:46;;;;;;;1.73;0.90;;;15.00;99.90;;;;;;4934635;29;20592;-80
2024/02/22 10:26:16;;;;;;;2.43;1.00;;;15.10;99.90;;;;;;4936042;29;20580;-79
2024/02/22 10:28:42;;;;;;;1.53;0.70;;;15.20;99.90;;;;;;4935034;29;20628;-80
2024/02/22 10:31:08;;;;;;;1.93;0.50;;;15.40;99.90;;;;;;4935439;29;21241;-80
2024/02/22 10:33:34;;;;;;;1.50;0.50;;;15.50;99.90;;;;;;4939662;23;20643;-74
2024/02/22 10:36:01;;;;;;;1.10;0.30;;;15.60;99.90;;;;;;4915108;29;20669;-73
2024/02/22 10:38:29;;;;;;;2.33;0.50;;;15.70;99.90;;;;;;4922126;29;20604;-74
2024/02/22 10:40:55;;;;;;;1.30;0.50;;;15.70;99.90;;;;;;4916068;29;20596;-74
2024/02/22 10:43:25;;;;;;;2.27;0.60;;;15.70;99.90;;;;;;4930549;29;20641;-74
2024/02/22 10:45:53;;;;;;;2.80;0.60;;;15.80;99.90;;;;;;4922473;29;20601;-74
2024/02/22 10:48:21;;;;;;;1.20;0.40;;;15.80;99.90;;;;;;4914653;29;20643;-74
2024/02/22 10:50:48;;;;;;;1.93;0.40;;;15.80;99.90;;;;;;4923177;29;20589;-74
2024/02/22 10:53:16;;;;;;;1.27;0.40;;;15.90;99.90;;;;;;4929553;29;20616;-74
2024/02/22 10:55:50;;;;;;;1.20;0.40;;;16.00;99.90;;;;;;4924152;29;20586;-74
2024/02/22 10:58:19;;;;;;;1.30;0.50;;;16.10;99.90;;;;;;4914608;29;20605;-74
2024/02/22 11:00:47;;;;;;;1.30;0.40;;;16.20;99.90;;;;;;4916527;29;20585;-74
2024/02/22 11:03:15;;;;;;;1.40;0.50;;;16.30;99.90;;;;;;4921251;29;20665;-74
2024/02/22 11:05:45;;;;;;;1.93;0.60;;;16.40;99.90;;;;;;4922126;29;20605;-74
2024/02/22 11:08:20;;;;;;;1.50;0.60;;;16.50;99.90;;;;;;4920856;29;20996;-74
2024/02/22 11:10:47;;;;;;;2.37;1.40;;;16.50;99.90;;;;;;4922590;29;20684;-74
2024/02/22 11:13:14;;;;;;;1.80;1.03;;;16.50;99.90;;;;;;4914072;29;20620;-74
2024/02/22 11:15:41;;;;;;;1.90;1.00;;;16.50;99.90;;;;;;4937870;29;20585;-74
2024/02/22 11:18:07;;;;;;;1.23;0.50;;;16.50;99.90;;;;;;4915012;29;21150;-75
2024/02/22 11:20:36;;;;;;;1.30;0.53;;;16.50;99.90;;;;;;4928997;29;20585;-75
2024/02/22 11:23:14;;;;;;;1.20;0.40;;;16.50;99.90;;;;;;4915320;29;20213;-75
2024/02/22 11:25:40;;;;;;;2.40;0.53;;;16.40;99.90;;;;;;4915048;29;20597;-75
2024/02/22 11:28:08;;;;;;;1.30;0.40;;;16.50;99.90;;;;;;4924670;29;20687;-75
2024/02/22 11:30:34;;;;;;;1.83;0.60;;;16.50;99.90;;;;;;4925106;29;21007;-75
2024/02/22 11:33:00;;;;;;;1.47;0.50;;;16.50;99.90;;;;;;4914752;29;20628;-75
2024/02/22 11:35:28;;;;;;;2.77;0.60;;;16.60;99.90;;;;;;4915091;29;20653;-75
2024/02/22 11:37:57;;;;;;;1.83;0.47;;;16.60;99.90;;;;;;4921545;29;20629;-75
2024/02/22 11:40:23;;;;;;;1.37;0.40;;;16.60;99.90;;;;;;4914292;29;20585;-75
2024/02/22 11:42:55;;;;;;;1.10;0.40;;;16.70;99.90;;;;;;4921236;29;20660;-75
2024/02/22 11:45:21;;;;;;;1.10;0.40;;;16.80;99.90;;;;;;4919829;29;20181;-74
2024/02/22 11:47:47;;;;;;;1.33;0.50;;;16.80;99.90;;;;;;4917818;29;20689;-75
2024/02/22 11:50:17;;;;;;;1.20;0.40;;;16.90;99.90;;;;;;4923990;29;20181;-75
2024/02/22 11:52:44;;;;;;;1.70;0.40;;;16.90;99.90;;;;;;4915202;29;20956;-75
2024/02/22 11:55:13;;;;;;;1.50;0.50;;;17.00;99.90;;;;;;4914886;29;20593;-75
2024/02/22 11:57:39;;;;;;;1.30;0.50;;;16.90;99.90;;;;;;4921732;29;20589;-74
2024/02/22 12:00:06;;;;;;;1.63;0.50;;;16.80;99.90;;;;;;4908382;29;20916;-74
2024/02/22 12:02:38;;;;;;;2.80;0.50;;;16.80;99.90;;;;;;4901107;29;21279;-74
2024/02/22 12:05:05;;;;;;;1.47;0.60;;;16.70;99.90;;;;;;4913640;29;20624;-74
2024/02/22 12:07:32;;;;;;;1.80;0.80;;;16.70;99.90;;;;;;4913601;29;21242;-74
2024/02/22 12:09:58;;;;;;;1.27;0.50;;;16.70;99.90;;;;;;4921602;29;20672;-74
2024/02/22 12:12:25;;;;;;;1.10;0.40;;;16.60;99.90;;;;;;4914210;29;20605;-75
2024/02/22 12:15:02;;;;;;;1.57;0.90;;;16.60;99.90;;;;;;4921092;29;20593;-74
2024/02/22 12:17:31;;;;;;;3.57;0.80;;;16.50;99.90;;;;;;4913267;29;20593;-75
2024/02/22 12:19:57;;;;;;;1.70;0.70;;;16.50;99.90;;;;;;4912204;29;20601;-74
2024/02/22 12:22:26;;;;;;;1.20;0.50;;;16.50;99.90;;;;;;4919012;29;20585;-74
2024/02/22 12:24:53;;;;;;;2.40;0.40;;;16.50;99.90;;;;;;4922020;29;20608;-75
2024/02/22 12:27:18;;;;;;;1.57;0.60;;;16.50;99.90;;;;;;4913346;29;20662;-74
2024/02/22 12:29:49;;;;;;;1.20;0.40;;;16.40;99.90;;;;;;4913173;29;20681;-74
2024/02/22 12:32:15;;;;;;;1.17;0.40;;;16.40;99.90;;;;;;4913097;29;20197;-74
2024/02/22 12:34:40;;;;;;;1.20;0.40;;;16.40;99.90;;;;;;4921896;29;21048;-74
2024/02/22 12:37:06;;;;;;;1.40;0.60;;;16.40;99.90;;;;;;4918216;29;20185;-74
2024/02/22 12:39:32;;;;;;;1.10;0.40;;;16.40;99.90;;;;;;4916167;29;20261;-74
2024/02/22 12:42:02;;;;;;;1.27;0.50;;;16.40;99.90;;;;;;4921843;29;20188;-74
2024/02/22 12:44:28;;;;;;;2.47;0.50;;;16.40;99.90;;;;;;4897217;29;20284;-74
2024/02/22 12:46:54;;;;;;;1.30;0.50;;;16.50;99.90;;;;;;4915136;29;20638;-74